Watrous, Canada
Current Conditions -  °F | °C
As of 1:00 AM on Saturday 29 Nov 2014 (Local Time) from CYXE Reporting Station
Light Snow Light Snow  
Wind Chill: -30°   Ceiling: 7000
Heat Index: -20°   Visibility: 12mi
Dew Point: -24°   Wind: 12mph
Humidity: 71%   Direction: 10°N
Pressure: 29.66"   Gusts: NA
Location:  51.67°N, 105.45°W
Report Text: CYXE 290700Z 01010KT 12SM -SN DRSN FEW009 SCT026 OVC070 M20/M24 A2966 RMK SC1SC2AC5 SLP091
Loading
Personal Weather Stations






























Interactive Weather Map New forecast layout! Learn more

10-Day Weather Forecast

Advertisements
Track Severe Weather on mobile